createdAt,value
2022-10-30T00:01:30.787Z,11.44
2022-10-30T00:03:50.838Z,11.46
2022-10-30T00:06:07.861Z,11.43
2022-10-30T00:08:25.260Z,11.43
2022-10-30T00:10:42.533Z,11.45
2022-10-30T00:12:59.795Z,11.43
2022-10-30T00:15:16.797Z,11.41
2022-10-30T00:17:33.699Z,11.38
2022-10-30T00:19:50.672Z,11.39
2022-10-30T00:24:25.983Z,11.38
2022-10-30T00:26:50.256Z,11.43
2022-10-30T00:29:07.264Z,11.45
2022-10-30T00:31:25.109Z,11.40
2022-10-30T00:33:42.175Z,11.36
2022-10-30T00:35:59.211Z,11.35
2022-10-30T00:38:16.459Z,11.33
2022-10-30T00:40:33.760Z,11.31
2022-10-30T00:42:51.000Z,11.30
2022-10-30T00:45:08.081Z,11.31
2022-10-30T00:47:25.303Z,11.28
2022-10-30T00:49:42.321Z,11.30
2022-10-30T00:52:00.355Z,11.28
2022-10-30T00:54:17.356Z,11.25
2022-10-30T00:56:34.370Z,11.25
2022-10-30T00:58:51.722Z,11.25
2022-10-30T01:01:09.795Z,11.25
2022-10-30T01:03:27.153Z,11.26
2022-10-30T01:05:44.187Z,11.27
2022-10-30T01:08:01.461Z,11.26
2022-10-30T01:10:18.569Z,11.26
2022-10-30T01:12:35.504Z,11.26
2022-10-30T01:14:52.761Z,11.27
2022-10-30T01:17:09.782Z,11.27
2022-10-30T01:19:26.782Z,11.26
2022-10-30T01:21:43.872Z,11.27
2022-10-30T01:24:00.808Z,11.26
2022-10-30T01:26:17.791Z,11.27
2022-10-30T01:28:34.799Z,11.27
2022-10-30T01:30:52.051Z,11.29
2022-10-30T01:33:09.360Z,11.31
2022-10-30T01:35:26.306Z,11.34
2022-10-30T01:37:47.027Z,11.37
2022-10-30T01:40:03.895Z,11.37
2022-10-30T01:42:21.152Z,11.37
2022-10-30T01:44:38.127Z,11.35
2022-10-30T01:46:56.462Z,11.33
2022-10-30T01:49:13.807Z,11.32
2022-10-30T01:51:31.873Z,11.30
2022-10-30T01:53:48.814Z,11.30
2022-10-30T01:56:05.725Z,11.30
2022-10-30T01:58:22.738Z,11.28
2022-10-30T02:00:39.725Z,11.28
2022-10-30T02:02:57.190Z,11.27
2022-10-30T02:05:14.815Z,11.27
2022-10-30T02:07:33.063Z,11.26
2022-10-30T02:09:50.255Z,11.23
2022-10-30T02:12:07.522Z,11.26
2022-10-30T02:14:25.046Z,11.23
2022-10-30T02:16:43.043Z,11.23
2022-10-30T02:19:00.039Z,11.22
2022-10-30T02:21:17.298Z,11.22
2022-10-30T02:23:34.234Z,11.18
2022-10-30T02:25:51.480Z,11.14
2022-10-30T02:28:08.403Z,11.14
2022-10-30T02:30:25.466Z,11.13
2022-10-30T02:32:43.494Z,11.12
2022-10-30T02:35:00.507Z,11.10
2022-10-30T02:37:18.420Z,11.05
2022-10-30T02:39:38.372Z,11.01
2022-10-30T02:41:55.298Z,11.03
2022-10-30T02:44:12.812Z,11.02
2022-10-30T02:46:32.112Z,11.00
2022-10-30T02:48:49.035Z,11.03
2022-10-30T02:51:05.981Z,10.98
2022-10-30T02:53:23.022Z,10.94
2022-10-30T02:55:42.399Z,10.92
2022-10-30T02:58:00.085Z,10.87
2022-10-30T03:00:18.411Z,10.84
2022-10-30T03:02:35.463Z,10.84
2022-10-30T03:04:52.704Z,10.78
2022-10-30T03:07:09.717Z,10.75
2022-10-30T03:09:27.755Z,10.74
2022-10-30T03:11:44.701Z,10.68
2022-10-30T03:14:01.972Z,10.67
2022-10-30T03:16:18.968Z,10.68
2022-10-30T03:18:36.020Z,10.67
2022-10-30T03:20:53.019Z,10.64
2022-10-30T03:23:10.169Z,10.64
2022-10-30T03:25:27.455Z,10.63
2022-10-30T03:27:45.448Z,10.61
2022-10-30T03:30:03.799Z,10.58
2022-10-30T03:32:20.763Z,10.60
2022-10-30T03:34:37.690Z,10.59
2022-10-30T03:36:54.931Z,10.60
2022-10-30T03:39:12.222Z,10.62
2022-10-30T03:41:29.203Z,10.60
2022-10-30T03:43:46.447Z,10.60
2022-10-30T03:46:04.325Z,10.58
2022-10-30T03:48:21.490Z,10.51
2022-10-30T03:50:38.664Z,10.48
2022-10-30T03:52:55.660Z,10.48
2022-10-30T03:55:12.896Z,10.45
2022-10-30T03:57:32.089Z,10.42
2022-10-30T03:59:51.443Z,10.42
2022-10-30T04:02:08.705Z,10.38
2022-10-30T04:04:26.226Z,10.37
2022-10-30T04:06:43.282Z,10.33
2022-10-30T04:09:01.308Z,10.34
2022-10-30T04:11:19.750Z,10.30
2022-10-30T04:13:36.891Z,10.27
2022-10-30T04:15:55.943Z,10.22
2022-10-30T04:18:14.717Z,10.18
2022-10-30T04:20:32.433Z,10.14
2022-10-30T04:22:49.476Z,10.10
2022-10-30T04:25:06.474Z,10.08
2022-10-30T04:27:23.735Z,10.04
2022-10-30T04:29:40.726Z,10.00
2022-10-30T04:31:58.003Z,9.99
2022-10-30T04:34:15.025Z,9.97
2022-10-30T04:36:32.061Z,9.95
2022-10-30T04:38:50.281Z,9.89
2022-10-30T04:41:07.239Z,9.86
2022-10-30T04:43:24.268Z,9.85
2022-10-30T04:45:42.180Z,9.82
2022-10-30T04:47:59.575Z,9.77
2022-10-30T04:50:17.013Z,9.74
2022-10-30T04:52:33.935Z,9.70
2022-10-30T04:54:50.809Z,9.68
2022-10-30T04:57:08.030Z,9.65
2022-10-30T04:59:26.012Z,9.65
2022-10-30T05:01:42.955Z,9.65
2022-10-30T05:03:59.984Z,9.62
2022-10-30T05:06:17.686Z,9.57
2022-10-30T05:08:34.678Z,9.53
2022-10-30T05:10:51.941Z,9.49
2022-10-30T05:13:10.038Z,9.48
2022-10-30T05:15:27.011Z,9.47
2022-10-30T05:17:45.005Z,9.43
2022-10-30T05:20:01.977Z,9.41
2022-10-30T05:22:18.972Z,9.37
2022-10-30T05:24:35.913Z,9.36
2022-10-30T05:26:52.922Z,9.33
2022-10-30T05:29:09.885Z,9.34
2022-10-30T05:31:26.933Z,9.35
2022-10-30T05:33:43.984Z,9.37
2022-10-30T05:36:01.225Z,9.37
2022-10-30T05:38:18.160Z,9.39
2022-10-30T05:40:35.187Z,9.39
2022-10-30T05:42:52.171Z,9.32
2022-10-30T05:45:09.698Z,9.31
2022-10-30T05:47:30.670Z,9.27
2022-10-30T05:49:47.812Z,9.26
2022-10-30T05:52:05.170Z,9.23
2022-10-30T05:54:22.208Z,9.22
2022-10-30T05:56:39.522Z,9.16
2022-10-30T05:58:56.438Z,9.12
2022-10-30T06:01:13.876Z,9.11
2022-10-30T06:03:30.813Z,9.10
2022-10-30T06:05:48.118Z,9.09
2022-10-30T06:08:05.196Z,9.11
2022-10-30T06:10:22.117Z,9.12
2022-10-30T06:12:39.164Z,9.15
2022-10-30T06:14:56.162Z,9.13
2022-10-30T06:17:13.148Z,9.09
2022-10-30T06:19:30.199Z,9.06
2022-10-30T06:21:47.198Z,9.11
2022-10-30T06:24:04.374Z,9.05
2022-10-30T06:26:22.673Z,9.06
2022-10-30T06:28:39.973Z,9.05
2022-10-30T06:30:56.946Z,9.07
2022-10-30T06:33:15.247Z,9.06
2022-10-30T06:35:32.189Z,9.07
2022-10-30T06:37:49.117Z,9.04
2022-10-30T06:40:06.065Z,9.04
2022-10-30T06:42:23.130Z,9.04
2022-10-30T06:44:41.051Z,9.00
2022-10-30T06:46:57.999Z,9.02
2022-10-30T06:49:14.948Z,9.03
2022-10-30T06:51:32.252Z,9.01
2022-10-30T06:53:49.188Z,9.02
2022-10-30T06:56:06.203Z,9.02
2022-10-30T06:58:23.243Z,9.04
2022-10-30T07:00:40.229Z,9.06
2022-10-30T07:02:58.134Z,9.03
2022-10-30T07:05:15.455Z,9.05
2022-10-30T07:07:32.498Z,9.04
2022-10-30T07:09:50.290Z,9.02
2022-10-30T07:12:07.549Z,8.97
2022-10-30T07:14:24.811Z,8.98
2022-10-30T07:16:41.770Z,8.98
2022-10-30T07:19:02.082Z,9.00
2022-10-30T07:21:22.115Z,9.04
2022-10-30T07:23:39.001Z,9.05
2022-10-30T07:25:59.585Z,9.06
2022-10-30T07:28:20.511Z,9.09
2022-10-30T07:30:38.517Z,9.12
2022-10-30T07:32:55.680Z,9.12
2022-10-30T07:35:13.820Z,9.08
2022-10-30T07:37:30.774Z,9.08
2022-10-30T07:39:47.712Z,9.07
2022-10-30T07:42:04.690Z,9.07
2022-10-30T07:44:21.635Z,9.05
2022-10-30T07:46:38.871Z,9.05
2022-10-30T07:48:57.127Z,9.06
2022-10-30T07:51:14.078Z,9.10
2022-10-30T07:53:32.674Z,9.13
2022-10-30T07:55:49.740Z,9.21
2022-10-30T07:58:07.018Z,9.33
2022-10-30T08:00:24.016Z,9.41
2022-10-30T08:02:41.496Z,9.48
2022-10-30T08:04:59.628Z,9.57
2022-10-30T08:07:16.944Z,9.71
2022-10-30T08:09:34.957Z,9.76
2022-10-30T08:11:53.205Z,9.82
2022-10-30T08:14:11.253Z,9.88
2022-10-30T08:16:28.488Z,9.98
2022-10-30T08:18:45.400Z,10.06
2022-10-30T08:21:02.357Z,10.16
2022-10-30T08:23:20.580Z,10.27
2022-10-30T08:25:37.638Z,10.42
2022-10-30T08:27:54.652Z,10.54
2022-10-30T08:30:11.609Z,10.73
2022-10-30T08:32:28.481Z,11.08
2022-10-30T08:34:45.595Z,11.27
2022-10-30T08:37:02.939Z,11.37
2022-10-30T08:39:19.834Z,11.47
2022-10-30T08:41:36.913Z,11.57
2022-10-30T08:43:54.199Z,11.62
2022-10-30T08:46:12.331Z,11.77
2022-10-30T08:48:29.371Z,11.90
2022-10-30T08:50:46.423Z,11.95
2022-10-30T08:53:03.733Z,12.05
2022-10-30T08:55:21.988Z,12.18
2022-10-30T08:57:39.031Z,12.37
2022-10-30T08:59:56.276Z,12.51
2022-10-30T09:02:13.639Z,12.68
2022-10-30T09:04:31.747Z,12.88
2022-10-30T09:06:49.135Z,13.05
2022-10-30T09:09:06.439Z,13.22
2022-10-30T09:11:23.664Z,13.40
2022-10-30T09:13:40.961Z,13.44
2022-10-30T09:15:57.954Z,13.46
2022-10-30T09:18:15.014Z,13.54
2022-10-30T09:20:32.322Z,13.60
2022-10-30T09:22:49.621Z,13.68
2022-10-30T09:25:07.548Z,13.80
2022-10-30T09:27:26.387Z,14.03
2022-10-30T09:29:43.396Z,14.27
2022-10-30T09:32:00.673Z,14.50
2022-10-30T09:34:17.818Z,14.71
2022-10-30T09:36:35.148Z,14.93
2022-10-30T09:38:52.423Z,15.07
2022-10-30T09:41:09.400Z,15.27
2022-10-30T09:43:26.383Z,15.55
2022-10-30T09:45:43.657Z,15.68
2022-10-30T09:48:00.772Z,15.76
2022-10-30T09:50:18.126Z,15.97
2022-10-30T09:52:35.236Z,16.11
2022-10-30T09:54:52.226Z,16.23
2022-10-30T09:57:09.207Z,16.29
2022-10-30T09:59:26.637Z,16.34
2022-10-30T10:01:43.712Z,16.35
2022-10-30T10:04:00.843Z,16.44
2022-10-30T10:06:17.983Z,16.47
2022-10-30T10:08:35.222Z,16.44
2022-10-30T10:10:52.330Z,16.48
2022-10-30T10:13:09.650Z,16.49
2022-10-30T10:15:26.844Z,16.59
2022-10-30T10:17:46.853Z,16.65
2022-10-30T10:20:07.547Z,16.74
2022-10-30T10:22:24.704Z,16.82
2022-10-30T10:24:43.443Z,16.89
2022-10-30T10:27:01.348Z,16.93
2022-10-30T10:29:18.309Z,17.04
2022-10-30T10:31:35.590Z,17.11
2022-10-30T10:33:56.830Z,17.22
2022-10-30T10:36:15.061Z,17.36
2022-10-30T10:38:33.304Z,17.49
2022-10-30T10:40:50.273Z,17.63
2022-10-30T10:43:07.205Z,17.66
2022-10-30T10:45:24.453Z,17.77
2022-10-30T10:47:41.394Z,17.89
2022-10-30T10:49:58.678Z,17.99
2022-10-30T10:52:16.883Z,18.12
2022-10-30T10:54:34.182Z,18.26
2022-10-30T10:56:51.421Z,18.46
2022-10-30T10:59:08.744Z,18.60
2022-10-30T11:01:25.872Z,18.71
2022-10-30T11:03:42.965Z,18.88
2022-10-30T11:06:00.326Z,19.08
2022-10-30T11:08:17.268Z,19.20
2022-10-30T11:10:34.260Z,19.28
2022-10-30T11:12:51.235Z,19.35
2022-10-30T11:15:08.538Z,19.52
2022-10-30T11:17:26.556Z,19.61
2022-10-30T11:19:46.489Z,19.63
2022-10-30T11:22:06.248Z,19.62
2022-10-30T11:24:23.465Z,19.71
2022-10-30T11:26:40.670Z,19.74
2022-10-30T11:28:57.943Z,19.77
2022-10-30T11:31:15.248Z,19.85
2022-10-30T11:33:32.514Z,19.87
2022-10-30T11:35:49.800Z,20.05
2022-10-30T11:38:07.782Z,20.26
2022-10-30T11:40:25.805Z,20.35
2022-10-30T11:42:42.791Z,20.53
2022-10-30T11:44:59.771Z,20.59
2022-10-30T11:47:16.751Z,20.65
2022-10-30T11:49:34.857Z,20.72
2022-10-30T11:51:52.418Z,20.77
2022-10-30T11:54:09.699Z,20.84
2022-10-30T11:56:27.913Z,20.95
2022-10-30T11:58:44.805Z,20.98
2022-10-30T12:01:03.011Z,21.08
2022-10-30T12:03:20.984Z,21.07
2022-10-30T12:05:38.492Z,21.12
2022-10-30T12:07:55.739Z,21.13
2022-10-30T12:10:12.696Z,21.08
2022-10-30T12:12:29.950Z,21.05
2022-10-30T12:14:46.979Z,21.05
2022-10-30T12:17:04.980Z,21.07
2022-10-30T12:19:21.948Z,21.09
2022-10-30T12:21:39.290Z,21.08
2022-10-30T12:23:57.310Z,21.02
2022-10-30T12:26:14.327Z,21.05
2022-10-30T12:28:31.292Z,21.23
2022-10-30T12:30:49.496Z,21.29
2022-10-30T12:33:07.487Z,21.50
2022-10-30T12:35:24.782Z,21.56
2022-10-30T12:37:41.765Z,21.65
2022-10-30T12:39:58.810Z,21.73
2022-10-30T12:42:15.796Z,21.69
2022-10-30T12:44:34.009Z,21.81
2022-10-30T12:46:52.274Z,21.77
2022-10-30T12:49:09.291Z,21.66
2022-10-30T12:51:26.283Z,21.64
2022-10-30T12:53:43.266Z,21.52
2022-10-30T12:56:00.135Z,21.46
2022-10-30T12:58:17.458Z,21.46
2022-10-30T13:00:34.784Z,21.30
2022-10-30T13:02:52.079Z,21.20
2022-10-30T13:05:09.643Z,21.11
2022-10-30T13:07:26.840Z,21.05
2022-10-30T13:09:44.124Z,20.95
2022-10-30T13:12:01.092Z,20.86
2022-10-30T13:14:18.587Z,20.83
2022-10-30T13:16:35.523Z,20.77
2022-10-30T13:18:52.540Z,20.72
2022-10-30T13:21:09.740Z,20.58
2022-10-30T13:23:26.731Z,20.49
2022-10-30T13:25:43.870Z,20.45
2022-10-30T13:28:01.108Z,20.31
2022-10-30T13:30:18.076Z,20.20
2022-10-30T13:32:35.129Z,20.26
2022-10-30T13:34:52.314Z,20.10
2022-10-30T13:37:09.392Z,20.02
2022-10-30T13:39:26.696Z,19.95
2022-10-30T13:41:43.895Z,19.90
2022-10-30T13:44:00.866Z,19.81
2022-10-30T13:46:18.097Z,19.78
2022-10-30T13:48:35.030Z,19.81
2022-10-30T13:50:51.873Z,19.77
2022-10-30T13:53:09.110Z,19.75
2022-10-30T13:55:26.291Z,19.78
2022-10-30T13:57:43.536Z,19.77
2022-10-30T14:00:00.822Z,19.74
2022-10-30T14:02:17.864Z,19.73
2022-10-30T14:04:35.229Z,19.72
2022-10-30T14:06:52.491Z,19.74
2022-10-30T14:09:09.856Z,19.74
2022-10-30T14:11:26.907Z,19.74
2022-10-30T14:13:43.926Z,19.92
2022-10-30T14:16:01.184Z,19.83
2022-10-30T14:18:19.535Z,19.79
2022-10-30T14:20:36.638Z,19.83
2022-10-30T14:22:53.922Z,19.83
2022-10-30T14:25:11.213Z,20.01
2022-10-30T14:27:28.193Z,19.89
2022-10-30T14:29:45.488Z,19.81
2022-10-30T14:32:02.473Z,19.79
2022-10-30T14:34:19.766Z,19.76
2022-10-30T14:36:36.800Z,19.75
2022-10-30T14:38:54.687Z,19.60
2022-10-30T14:41:13.699Z,19.52
2022-10-30T14:43:30.914Z,19.48
2022-10-30T14:45:47.961Z,19.35
2022-10-30T14:48:05.878Z,19.21
2022-10-30T14:50:24.077Z,19.18
2022-10-30T14:52:41.040Z,19.05
2022-10-30T14:54:58.250Z,18.88
2022-10-30T14:57:15.291Z,18.86
2022-10-30T14:59:32.466Z,18.68
2022-10-30T15:01:49.520Z,18.51
2022-10-30T15:04:06.566Z,18.38
2022-10-30T15:06:23.522Z,18.30
2022-10-30T15:08:40.504Z,18.22
2022-10-30T15:11:00.265Z,18.06
2022-10-30T15:13:17.292Z,17.92
2022-10-30T15:15:34.152Z,17.77
2022-10-30T15:17:51.426Z,17.67
2022-10-30T15:20:08.443Z,17.56
2022-10-30T15:22:25.740Z,17.48
2022-10-30T15:24:42.679Z,17.43
2022-10-30T15:27:00.467Z,17.36
2022-10-30T15:29:17.466Z,17.23
2022-10-30T15:31:34.317Z,17.13
2022-10-30T15:33:52.359Z,17.06
2022-10-30T15:36:09.344Z,17.07
2022-10-30T15:38:26.335Z,16.96
2022-10-30T15:40:43.640Z,16.90
2022-10-30T15:43:01.249Z,16.82
2022-10-30T15:45:18.518Z,16.76
2022-10-30T15:47:35.535Z,16.68
2022-10-30T15:49:52.938Z,16.59
2022-10-30T15:52:09.848Z,16.54
2022-10-30T15:54:27.830Z,16.46
2022-10-30T15:57:15.757Z,16.37
2022-10-30T15:59:22.809Z,16.23
2022-10-30T16:01:40.125Z,16.14
2022-10-30T16:03:57.852Z,16.09
2022-10-30T16:06:14.805Z,15.97
2022-10-30T16:08:33.122Z,15.88
2022-10-30T16:10:50.156Z,15.80
2022-10-30T16:13:07.448Z,15.74
2022-10-30T16:15:24.740Z,15.64
2022-10-30T16:17:42.009Z,15.55
2022-10-30T16:19:59.060Z,15.44
2022-10-30T16:22:15.887Z,15.37
2022-10-30T16:24:32.918Z,15.31
2022-10-30T16:26:50.000Z,15.22
2022-10-30T16:29:07.213Z,15.16
2022-10-30T16:31:24.492Z,15.10
2022-10-30T16:33:41.536Z,15.06
2022-10-30T16:35:59.574Z,15.00
2022-10-30T16:38:16.564Z,14.93
2022-10-30T16:40:35.891Z,14.84
2022-10-30T16:42:52.857Z,14.79
2022-10-30T16:45:09.783Z,14.74
2022-10-30T16:47:27.034Z,14.64
2022-10-30T16:49:46.993Z,14.61
2022-10-30T16:52:06.526Z,14.56
2022-10-30T16:54:23.568Z,14.47
2022-10-30T16:56:44.333Z,14.43
2022-10-30T16:59:02.740Z,14.38
2022-10-30T17:01:20.310Z,14.37
2022-10-30T17:03:37.631Z,14.30
2022-10-30T17:05:56.719Z,14.23
2022-10-30T17:08:14.974Z,14.16
2022-10-30T17:10:32.120Z,14.12
2022-10-30T17:12:49.128Z,14.08
2022-10-30T17:15:06.067Z,14.04
2022-10-30T17:17:23.022Z,13.96
2022-10-30T17:19:39.984Z,13.93
2022-10-30T17:21:56.978Z,13.88
2022-10-30T17:24:15.049Z,13.85
2022-10-30T17:26:32.070Z,13.75
2022-10-30T17:28:50.349Z,13.73
2022-10-30T17:31:07.653Z,13.68
2022-10-30T17:33:24.617Z,13.65
2022-10-30T17:35:41.980Z,13.61
2022-10-30T17:38:02.543Z,13.57
2022-10-30T17:40:20.606Z,13.56
2022-10-30T17:42:38.618Z,13.54
2022-10-30T17:44:55.598Z,13.50
2022-10-30T17:47:12.905Z,13.43
2022-10-30T17:49:31.005Z,13.38
2022-10-30T17:51:48.060Z,13.31
2022-10-30T17:54:05.409Z,13.28
2022-10-30T17:56:22.432Z,13.24
2022-10-30T17:58:39.449Z,13.19
2022-10-30T18:00:56.507Z,13.11
2022-10-30T18:03:13.722Z,13.04
2022-10-30T18:05:30.709Z,12.99
2022-10-30T18:10:07.296Z,12.91
2022-10-30T18:12:25.335Z,12.87
2022-10-30T18:14:42.405Z,12.84
2022-10-30T18:16:59.301Z,12.81
2022-10-30T18:19:17.572Z,12.78
2022-10-30T18:21:35.278Z,12.74
2022-10-30T18:23:53.384Z,12.74
2022-10-30T18:26:11.991Z,12.70
2022-10-30T18:28:29.017Z,12.64
2022-10-30T18:30:46.335Z,12.59
2022-10-30T18:33:03.870Z,12.54
2022-10-30T18:35:21.091Z,12.50
2022-10-30T18:37:40.468Z,12.49
2022-10-30T18:39:57.419Z,12.44
2022-10-30T18:42:15.461Z,12.40
2022-10-30T18:44:33.490Z,12.38
2022-10-30T18:46:51.461Z,12.36
2022-10-30T18:49:09.483Z,12.32
2022-10-30T18:51:27.332Z,12.27
2022-10-30T18:53:44.667Z,12.22
2022-10-30T18:56:01.973Z,12.18
2022-10-30T18:58:19.288Z,12.09
2022-10-30T19:00:57.982Z,12.05
2022-10-30T19:03:14.096Z,12.03
2022-10-30T19:05:31.235Z,12.01
2022-10-30T19:07:48.214Z,11.94
2022-10-30T19:10:05.157Z,11.90
2022-10-30T19:12:22.301Z,11.85
2022-10-30T19:14:39.569Z,11.82
2022-10-30T19:16:56.792Z,11.77
2022-10-30T19:19:14.535Z,11.72
2022-10-30T19:21:32.575Z,11.71
2022-10-30T19:23:51.020Z,11.68
2022-10-30T19:26:08.355Z,11.66
2022-10-30T19:28:25.681Z,11.64
2022-10-30T19:30:42.988Z,11.60
2022-10-30T19:33:00.078Z,11.56
2022-10-30T19:35:17.249Z,11.51
2022-10-30T19:37:34.240Z,11.44
2022-10-30T19:39:51.286Z,11.39
2022-10-30T19:42:08.388Z,11.38
2022-10-30T19:44:25.352Z,11.35
2022-10-30T19:46:42.664Z,11.30
2022-10-30T19:49:00.596Z,11.24
2022-10-30T19:51:19.196Z,11.20
2022-10-30T19:53:36.500Z,11.18
2022-10-30T19:55:53.526Z,11.17
2022-10-30T19:58:10.874Z,11.15
2022-10-30T20:00:27.945Z,11.12
2022-10-30T20:02:45.222Z,11.09
2022-10-30T20:05:02.789Z,11.08
2022-10-30T20:07:20.010Z,11.07
2022-10-30T20:09:36.903Z,11.01
2022-10-30T20:11:55.123Z,11.00
2022-10-30T20:14:12.118Z,11.00
2022-10-30T20:16:29.267Z,10.99
2022-10-30T20:18:46.579Z,10.94
2022-10-30T20:21:03.528Z,10.93
2022-10-30T20:23:23.156Z,10.85
2022-10-30T20:25:40.199Z,10.87
2022-10-30T20:27:58.784Z,10.83
2022-10-30T20:30:21.366Z,10.73
2022-10-30T20:32:38.650Z,10.75
2022-10-30T20:34:55.887Z,10.75
2022-10-30T20:37:13.099Z,10.67
2022-10-30T20:39:30.439Z,10.64
2022-10-30T20:41:47.743Z,10.62
2022-10-30T20:44:05.678Z,10.59
2022-10-30T20:46:22.962Z,10.57
2022-10-30T20:48:39.913Z,10.51
2022-10-30T20:50:58.234Z,10.44
2022-10-30T20:53:15.213Z,10.40
2022-10-30T20:55:32.548Z,10.40
2022-10-30T20:57:49.882Z,10.36
2022-10-30T21:00:06.881Z,10.37
2022-10-30T21:02:24.123Z,10.36
2022-10-30T21:04:44.244Z,10.37
2022-10-30T21:07:01.257Z,10.35
2022-10-30T21:09:18.274Z,10.33
2022-10-30T21:11:35.199Z,10.35
2022-10-30T21:13:52.477Z,10.35
2022-10-30T21:16:09.409Z,10.36
2022-10-30T21:18:26.647Z,10.35
2022-10-30T21:20:44.571Z,10.32
2022-10-30T21:23:01.522Z,10.30
2022-10-30T21:25:19.530Z,10.30
2022-10-30T21:27:36.805Z,10.31
2022-10-30T21:29:53.692Z,10.31
2022-10-30T21:32:10.652Z,10.34
2022-10-30T21:34:31.018Z,10.31
2022-10-30T21:36:47.992Z,10.28
2022-10-30T21:39:04.952Z,10.27
2022-10-30T21:41:22.935Z,10.24
2022-10-30T21:43:40.132Z,10.18
2022-10-30T21:45:57.102Z,10.17
2022-10-30T21:48:14.134Z,10.18
2022-10-30T21:50:31.136Z,10.22
2022-10-30T21:52:48.070Z,10.19
2022-10-30T21:55:05.099Z,10.17
2022-10-30T21:57:22.129Z,10.16
2022-10-30T21:59:39.308Z,10.13
2022-10-30T22:01:56.621Z,10.08
2022-10-30T22:04:13.658Z,10.03
2022-10-30T22:06:30.663Z,9.99
2022-10-30T22:08:48.908Z,9.98
2022-10-30T22:11:06.204Z,9.96
2022-10-30T22:13:23.179Z,9.94
2022-10-30T22:15:40.469Z,9.91
2022-10-30T22:17:58.058Z,9.87
2022-10-30T22:20:15.383Z,9.82
2022-10-30T22:22:32.599Z,9.80
2022-10-30T22:24:50.007Z,9.81
2022-10-30T22:27:07.064Z,9.82
2022-10-30T22:29:25.435Z,9.78
2022-10-30T22:31:42.525Z,9.75
2022-10-30T22:33:59.464Z,9.72
2022-10-30T22:36:16.483Z,9.69
2022-10-30T22:38:33.417Z,9.65
2022-10-30T22:40:50.808Z,9.65
2022-10-30T22:43:08.269Z,9.65
2022-10-30T22:45:26.134Z,9.63
2022-10-30T22:47:43.233Z,9.60
2022-10-30T22:50:00.208Z,9.57
2022-10-30T22:52:17.668Z,9.55
2022-10-30T22:54:34.637Z,9.50
2022-10-30T22:56:51.580Z,9.48
2022-10-30T22:59:09.035Z,9.47
2022-10-30T23:01:27.121Z,9.47
2022-10-30T23:03:44.319Z,9.45
2022-10-30T23:06:02.655Z,9.44
2022-10-30T23:08:20.674Z,9.42
2022-10-30T23:10:37.680Z,9.45
2022-10-30T23:12:57.362Z,9.48
2022-10-30T23:15:14.580Z,9.48
2022-10-30T23:17:32.946Z,9.47
2022-10-30T23:19:50.216Z,9.47
2022-10-30T23:22:07.349Z,9.44
2022-10-30T23:24:24.405Z,9.45
2022-10-30T23:26:41.438Z,9.45
2022-10-30T23:28:58.606Z,9.44
2022-10-30T23:31:15.913Z,9.46
2022-10-30T23:33:33.874Z,9.45
2022-10-30T23:35:51.192Z,9.42
2022-10-30T23:38:08.207Z,9.39
2022-10-30T23:40:25.531Z,9.37
2022-10-30T23:42:42.937Z,9.35
2022-10-30T23:45:00.311Z,9.35
2022-10-30T23:47:17.535Z,9.35
2022-10-30T23:49:34.563Z,9.34
2022-10-30T23:51:52.586Z,9.36
2022-10-30T23:54:09.782Z,9.35
2022-10-30T23:56:28.812Z,9.34
2022-10-30T23:58:46.006Z,9.32
